.
WxDataArchive / Data Records for 2008-02-20
2008-02-19 February 2008 2008-02-21

Data Records for Wednesday, 20 February 2008

Time	Temp	Chill	HIndex	Humid	Dewpt	 Wind 	HiWind	WindDir	Rain 	Barom 
-----	----	-----	------	-----	-----	------	------	-------	-----	----- 
00:00	14.1	14.1	14.1	76	8.0	1	3	248	0.00	30.051 
00:05	14.3	14.3	14.3	76	8.1	2	6	248	0.00	30.053 
00:10	14.4	14.4	14.4	75	8.0	1	4	248	0.00	30.052 
00:15	14.4	14.4	14.4	75	8.0	1	5	248	0.00	30.051 
00:20	14.4	14.4	14.4	75	8.0	1	4	248	0.00	30.052 
00:25	14.4	14.4	14.4	75	8.0	1	4	248	0.00	30.052 
00:30	14.4	14.4	14.4	75	8.0	1	4	248	0.00	30.050 
00:35	14.4	14.4	14.4	75	8.0	0	3	248	0.00	30.050 
00:40	14.4	14.4	14.4	75	8.0	1	3	225	0.00	30.050 
00:45	14.4	14.4	14.4	75	8.0	1	4	248	0.00	30.050 
00:50	14.4	14.4	14.4	75	8.0	1	4	248	0.00	30.048 
00:55	14.4	14.4	14.4	74	7.7	1	3	248	0.00	30.048 
01:00	14.4	14.4	14.4	75	8.0	0	2	248	0.00	30.049 
01:05	14.4	14.4	14.4	74	7.7	1	4	248	0.00	30.046 
01:10	14.4	14.4	14.4	74	7.7	1	3	248	0.00	30.046 
01:15	14.6	14.6	14.6	74	7.8	0	2	248	0.00	30.043 
01:20	14.6	14.6	14.6	74	7.8	0	1	248	0.00	30.043 
01:25	14.6	14.6	14.6	74	7.8	0	3	248	0.00	30.044 
01:30	14.6	14.6	14.6	74	7.8	1	3	248	0.00	30.046 
01:35	14.8	14.8	14.8	74	8.0	1	3	248	0.00	30.046 
01:40	14.9	14.9	14.9	74	8.1	0	1	225	0.00	30.048 
01:45	14.9	14.9	14.9	74	8.1	0	3	248	0.00	30.048 
01:50	15.1	15.1	15.1	74	8.3	0	3	248	0.00	30.048 
01:55	15.1	15.1	15.1	74	8.3	1	4	248	0.00	30.047 
02:00	15.2	15.2	15.2	74	8.4	1	3	248	0.00	30.045 
02:05	15.2	15.2	15.2	74	8.4	0	1	248	0.00	30.046 
02:10	15.2	15.2	15.2	74	8.4	0	2	248	0.00	30.045 
02:15	15.4	15.4	15.4	74	8.6	0	2	248	0.00	30.045 
02:20	15.4	15.4	15.4	74	8.6	0	2	248	0.00	30.045 
02:25	15.6	15.6	15.6	73	8.5	0	1	248	0.00	30.046 
02:30	15.6	15.6	15.6	74	8.8	0	2	248	0.00	30.043 
02:35	15.6	15.6	15.6	74	8.8	0	1	248	0.00	30.044 
02:40	15.6	15.6	15.6	74	8.8	0	1	248	0.00	30.043 
02:45	15.7	15.7	15.7	75	9.2	0	2	248	0.00	30.042 
02:50	15.7	15.7	15.7	75	9.2	0	1	248	0.00	30.043 
02:55	15.7	15.7	15.7	75	9.2	0	1	248	0.00	30.042 
03:00	15.7	15.7	15.7	75	9.2	0	2	248	0.00	30.037 
03:05	15.7	15.7	15.7	75	9.2	0	2	248	0.00	30.034 
03:10	15.7	15.7	15.7	76	9.5	0	1	248	0.00	30.031 
03:15	15.7	15.7	15.7	76	9.5	0	1	248	0.00	30.029 
03:20	15.9	15.9	15.9	77	10.0	0	1	248	0.00	30.028 
03:25	15.9	15.9	15.9	77	10.0	0	0	---	0.00	30.027 
03:30	15.9	15.9	15.9	77	10.0	0	1	248	0.00	30.027 
03:35	15.9	15.9	15.9	77	10.0	0	1	248	0.00	30.028 
03:40	15.9	15.9	15.9	78	10.3	0	1	248	0.00	30.028 
03:45	15.9	15.9	15.9	78	10.3	0	1	248	0.00	30.026 
03:50	15.9	15.9	15.9	78	10.3	0	0	---	0.00	30.025 
03:55	15.9	15.9	15.9	79	10.6	0	0	---	0.00	30.025 
04:00	15.9	15.9	15.9	79	10.6	0	1	248	0.00	30.026 
04:05	15.9	15.9	15.9	79	10.6	0	1	248	0.00	30.025 
04:10	15.9	15.9	15.9	79	10.6	0	1	248	0.00	30.020 
04:15	15.9	15.9	15.9	79	10.6	0	0	---	0.00	30.020 
04:20	15.9	15.9	15.9	79	10.6	0	0	---	0.00	30.022 
04:25	15.9	15.9	15.9	79	10.6	0	0	---	0.00	30.019 
04:30	15.9	15.9	15.9	80	10.8	0	0	---	0.00	30.020 
04:35	15.9	15.9	15.9	80	10.8	0	1	248	0.00	30.017 
04:40	15.9	15.9	15.9	80	10.8	0	1	248	0.00	30.016 
04:45	15.9	15.9	15.9	80	10.8	0	0	---	0.00	30.017 
04:50	16.1	16.1	16.1	80	11.0	0	0	---	0.00	30.021 
04:55	16.1	16.1	16.1	81	11.3	0	0	---	0.00	30.020 
05:00	16.1	16.1	16.1	81	11.3	0	1	248	0.00	30.018 
05:05	16.1	16.1	16.1	81	11.3	0	0	---	0.00	30.016 
05:10	16.1	16.1	16.1	81	11.3	0	0	---	0.00	30.018 
05:15	16.1	16.1	16.1	82	11.6	0	1	248	0.00	30.017 
05:20	16.1	16.1	16.1	82	11.6	0	1	248	0.00	30.018 
05:25	16.1	16.1	16.1	82	11.6	0	1	248	0.00	30.018 
05:30	16.1	16.1	16.1	82	11.6	0	1	248	0.00	30.023 
05:35	16.1	16.1	16.1	83	11.9	0	1	248	0.00	30.019 
05:40	15.9	15.9	15.9	83	11.7	0	1	248	0.00	30.018 
05:45	15.9	15.9	15.9	83	11.7	0	1	248	0.00	30.019 
05:50	16.1	16.1	16.1	83	11.9	0	1	248	0.00	30.018 
05:55	15.9	15.9	15.9	83	11.7	0	2	248	0.00	30.018 
06:00	15.7	15.7	15.7	83	11.5	1	3	135	0.00	30.015 
06:05	15.7	15.7	15.7	82	11.2	0	2	112	0.00	30.016 
06:10	15.7	15.7	15.7	82	11.2	1	2	112	0.00	30.015 
06:15	15.6	15.6	15.6	81	10.8	1	3	112	0.00	30.016 
06:20	15.6	15.6	15.6	81	10.8	0	2	112	0.00	30.016 
06:25	15.4	15.4	15.4	81	10.6	0	2	112	0.00	30.018 
06:30	15.4	15.4	15.4	81	10.6	0	1	112	0.00	30.017 
06:35	15.4	15.4	15.4	81	10.6	0	1	112	0.00	30.016 
06:40	15.4	15.4	15.4	81	10.6	1	2	112	0.00	30.016 
06:45	15.4	15.4	15.4	81	10.6	0	3	112	0.00	30.016 
06:50	15.4	15.4	15.4	81	10.6	0	1	112	0.00	30.016 
06:55	15.4	15.4	15.4	82	10.9	0	3	45	0.00	30.016 
07:00	15.4	15.4	15.4	81	10.6	0	1	45	0.00	30.017 
07:05	15.2	15.2	15.2	81	10.4	0	3	45	0.00	30.017 
07:10	15.2	15.2	15.2	81	10.4	0	1	45	0.00	30.019 
07:15	15.2	15.2	15.2	82	10.7	0	2	45	0.00	30.022 
07:20	15.2	15.2	15.2	82	10.7	0	2	45	0.00	30.022 
07:25	15.2	15.2	15.2	82	10.7	1	3	45	0.00	30.022 
07:30	15.1	15.1	15.1	82	10.6	1	3	112	0.00	30.023 
07:35	15.1	15.1	15.1	81	10.3	0	2	112	0.00	30.024 
07:40	15.1	15.1	15.1	81	10.3	0	1	90	0.00	30.029 
07:45	15.1	15.1	15.1	81	10.3	0	2	90	0.00	30.032 
07:50	15.1	15.1	15.1	81	10.3	0	1	90	0.00	30.033 
07:55	15.1	15.1	15.1	82	10.6	0	1	90	0.00	30.037 
08:00	15.1	15.1	15.1	82	10.6	0	1	90	0.00	30.043 
08:05	15.1	15.1	15.1	81	10.3	0	1	90	0.00	30.045 
08:10	15.1	15.1	15.1	82	10.6	0	1	90	0.00	30.048 
08:15	15.1	15.1	15.1	81	10.3	0	2	45	0.00	30.049 
08:20	15.1	15.1	15.1	81	10.3	0	1	45	0.00	30.054 
08:25	15.2	15.2	15.2	81	10.4	0	2	45	0.00	30.058 
08:30	15.4	15.4	15.4	81	10.6	0	2	0	0.00	30.062 
08:35	15.2	15.2	15.2	81	10.4	0	2	22	0.00	30.064 
08:40	15.2	15.2	15.2	81	10.4	0	1	22	0.00	30.067 
08:45	15.4	15.4	15.4	81	10.6	0	1	22	0.00	30.073 
08:50	15.6	15.6	15.6	80	10.6	0	2	0	0.00	30.075 
08:55	15.6	15.6	15.6	79	10.3	0	2	338	0.00	30.079 
09:00	15.7	15.7	15.7	79	10.4	0	2	338	0.00	30.080 
09:05	15.9	15.9	15.9	78	10.3	0	2	315	0.00	30.083 
09:10	15.9	15.9	15.9	77	10.0	0	2	315	0.00	30.085 
09:15	16.1	16.1	16.1	77	10.2	1	3	0	0.00	30.089 
09:20	16.2	16.2	16.2	77	10.3	0	1	0	0.00	30.091 
09:25	16.4	16.4	16.4	78	10.8	0	2	0	0.00	30.093 
09:30	16.4	16.4	16.4	78	10.8	0	1	45	0.00	30.095 
09:35	16.4	16.4	16.4	78	10.8	0	2	45	0.00	30.098 
09:40	16.4	16.4	16.4	77	10.5	1	3	45	0.00	30.105 
09:45	16.4	16.4	16.4	77	10.5	0	2	0	0.00	30.109 
09:50	16.7	16.7	16.7	77	10.8	0	2	338	0.00	30.109 
09:55	17.0	17.0	17.0	75	10.5	0	2	338	0.00	30.110 
10:00	17.3	17.3	17.3	73	10.2	0	2	338	0.00	30.114 
10:05	17.5	17.5	17.5	74	10.7	0	2	0	0.00	30.116 
10:10	17.7	17.7	17.7	75	11.1	0	2	0	0.00	30.119 
10:15	17.7	17.7	17.7	73	10.5	1	3	45	0.00	30.121 
10:20	17.5	17.5	17.5	74	10.7	0	2	45	0.00	30.123 
10:25	17.5	17.5	17.5	74	10.7	0	2	338	0.00	30.125 
10:30	17.7	17.7	17.7	73	10.5	0	2	0	0.00	30.128 
10:35	18.0	18.0	18.0	73	10.8	0	2	0	0.00	30.132 
10:40	18.3	18.3	18.3	73	11.1	1	3	0	0.00	30.134 
10:45	18.6	18.6	18.6	73	11.4	1	3	135	0.00	30.135 
10:50	18.9	18.9	18.9	70	10.8	0	3	112	0.00	30.138 
10:55	18.8	18.8	18.8	66	9.4	1	5	22	0.00	30.139 
11:00	18.6	18.6	18.6	63	8.1	1	4	22	0.00	30.142 
11:05	18.4	18.4	18.4	64	8.3	1	5	0	0.00	30.146 
11:10	18.4	18.4	18.4	65	8.6	1	6	270	0.00	30.150 
11:15	18.4	18.4	18.4	66	9.0	1	3	22	0.00	30.154 
11:20	18.4	18.4	18.4	67	9.3	1	3	270	0.00	30.155 
11:25	19.1	19.1	19.1	66	9.6	1	3	315	0.00	30.159 
11:30	19.4	19.4	19.4	63	8.9	1	5	338	0.00	30.164 
11:35	19.9	19.9	19.9	62	9.0	1	4	338	0.00	30.165 
11:40	20.0	20.0	20.0	61	8.7	1	3	45	0.00	30.168 
11:45	19.7	19.7	19.7	58	7.3	1	5	0	0.01	30.169 
11:50	20.2	20.2	20.2	58	7.8	1	5	22	0.00	30.169 
11:55	20.3	20.3	20.3	57	7.5	1	5	338	0.00	30.170 
12:00	20.3	20.3	20.3	59	8.3	1	5	270	0.00	30.171 
12:05	20.3	20.3	20.3	58	7.9	2	7	292	0.00	30.174 
12:10	20.3	20.3	20.3	58	7.9	2	7	292	0.00	30.178 
12:15	20.2	20.2	20.2	59	8.2	1	5	0	0.00	30.180 
12:20	20.3	20.3	20.3	58	7.9	1	5	338	0.00	30.180 
12:25	19.7	19.7	19.7	54	5.8	2	6	315	0.00	30.182 
12:30	19.9	19.9	19.9	57	7.2	1	5	315	0.00	30.181 
12:35	20.0	20.0	20.0	52	5.2	1	6	338	0.00	30.183 
12:40	20.5	20.5	20.5	56	7.3	2	9	338	0.00	30.184 
12:45	20.0	20.0	20.0	54	6.1	1	5	338	0.00	30.185 
12:50	19.9	19.9	19.9	55	6.4	1	6	338	0.00	30.185 
12:55	19.9	19.9	19.9	56	6.8	2	6	338	0.00	30.186 
13:00	19.7	19.7	19.7	54	5.8	1	3	338	0.00	30.186 
13:05	19.7	19.7	19.7	56	6.6	1	4	338	0.00	30.186 
13:10	20.3	20.3	20.3	57	7.5	1	7	338	0.00	30.186 
13:15	20.5	20.5	20.5	54	6.5	2	6	315	0.00	30.185 
13:20	20.8	20.8	20.8	54	6.8	2	9	338	0.00	30.186 
13:25	21.3	21.3	21.3	54	7.3	2	5	338	0.00	30.188 
13:30	21.8	21.8	21.8	54	7.7	1	6	22	0.00	30.189 
13:35	21.8	21.8	21.8	53	7.3	1	4	0	0.00	30.191 
13:40	21.4	21.4	21.4	49	5.2	1	7	0	0.00	30.194 
13:45	21.1	21.1	21.1	51	5.8	1	4	0	0.00	30.196 
13:50	21.9	21.9	21.9	53	7.4	1	4	0	0.00	30.196 
13:55	21.6	21.6	21.6	47	4.5	2	7	292	0.00	30.198 
14:00	21.6	21.6	21.6	49	5.4	1	3	315	0.00	30.198 
14:05	21.6	21.6	21.6	49	5.4	2	5	0	0.00	30.195 
14:10	21.9	21.9	21.9	48	5.3	2	5	270	0.00	30.197 
14:15	22.1	22.1	22.1	51	6.8	2	9	270	0.00	30.196 
14:20	22.2	22.2	22.2	47	5.1	2	7	22	0.00	30.199 
14:25	21.4	21.4	21.4	48	4.8	2	10	22	0.00	30.203 
14:30	21.8	21.8	21.8	49	5.6	1	5	315	0.00	30.201 
14:35	22.2	22.2	22.2	50	6.4	2	5	338	0.00	30.205 
14:40	22.5	22.5	22.5	47	5.3	2	5	338	0.00	30.209 
14:45	22.7	22.7	22.7	48	6.0	2	6	338	0.00	30.207 
14:50	22.5	22.5	22.5	46	4.9	2	5	315	0.00	30.213 
14:55	22.2	22.2	22.2	46	4.6	2	6	315	0.00	30.216 
15:00	22.1	22.1	22.1	49	5.9	1	4	292	0.00	30.219 
15:05	22.2	22.2	22.2	46	4.6	2	5	0	0.00	30.223 
15:10	22.2	22.2	22.2	45	4.1	1	5	22	0.00	30.225 
15:15	22.5	22.5	22.5	46	4.9	2	6	270	0.00	30.228 
15:20	22.4	22.4	22.4	41	2.3	2	5	315	0.00	30.231 
15:25	22.9	22.9	22.9	44	4.3	1	4	22	0.00	30.234 
15:30	22.7	22.7	22.7	44	4.1	1	5	338	0.00	30.239 
15:35	22.5	22.5	22.5	42	2.9	2	4	338	0.00	30.241 
15:40	22.4	22.4	22.4	43	3.3	1	4	292	0.00	30.242 
15:45	22.2	22.2	22.2	42	2.6	1	5	22	0.00	30.244 
15:50	21.8	21.8	21.8	43	2.8	1	3	0	0.00	30.245 
15:55	21.8	21.8	21.8	43	2.8	1	3	0	0.00	30.246 
16:00	22.2	22.2	22.2	41	2.1	1	5	0	0.00	30.248 
16:05	22.4	22.4	22.4	39	1.2	2	7	0	0.00	30.250 
16:10	22.5	22.5	22.5	44	3.9	2	4	22	0.00	30.254 
16:15	22.5	22.5	22.5	40	1.9	1	3	22	0.00	30.259 
16:20	22.9	22.9	22.9	41	2.8	1	3	22	0.00	30.258 
16:25	22.9	22.9	22.9	41	2.8	1	4	22	0.00	30.261 
16:30	22.7	22.7	22.7	40	2.0	1	6	338	0.00	30.263 
16:35	22.2	22.2	22.2	37	-0.1	1	5	338	0.00	30.266 
16:40	22.1	22.1	22.1	39	1.0	1	4	22	0.00	30.265 
16:45	21.9	21.9	21.9	38	0.2	2	5	22	0.00	30.266 
16:50	21.9	21.9	21.9	40	1.3	1	5	22	0.00	30.270 
16:55	21.9	21.9	21.9	39	0.8	1	3	45	0.00	30.274 
17:00	21.8	21.8	21.8	38	0.1	1	6	338	0.00	30.275 
17:05	21.6	21.6	21.6	37	-0.6	1	5	292	0.00	30.275 
17:10	21.4	21.4	21.4	37	-0.8	1	6	0	0.00	30.278 
17:15	21.3	21.3	21.3	37	-0.9	1	4	315	0.00	30.281 
17:20	21.1	21.1	21.1	38	-0.5	1	4	270	0.00	30.286 
17:25	21.1	21.1	21.1	37	-1.1	1	4	45	0.00	30.290 
17:30	21.0	21.0	21.0	37	-1.1	1	3	0	0.00	30.291 
17:35	20.8	20.8	20.8	38	-0.8	1	3	338	0.00	30.293 
17:40	20.8	20.8	20.8	39	-0.2	0	2	22	0.00	30.293 
17:45	20.6	20.6	20.6	38	-0.9	1	4	0	0.00	30.294 
17:50	20.5	20.5	20.5	39	-0.5	0	4	315	0.00	30.296 
17:55	20.3	20.3	20.3	39	-0.7	0	2	315	0.00	30.302 
18:00	20.2	20.2	20.2	39	-0.7	1	3	22	0.00	30.307 
18:05	19.9	19.9	19.9	39	-1.0	0	2	0	0.00	30.310 
18:10	19.7	19.7	19.7	39	-1.2	1	3	338	0.00	30.311 
18:15	19.5	19.5	19.5	40	-0.8	0	1	315	0.00	30.311 
18:20	19.4	19.4	19.4	40	-0.9	0	1	315	0.00	30.313 
18:25	19.2	19.2	19.2	40	-1.1	0	3	315	0.00	30.315 
18:30	19.1	19.1	19.1	41	-0.7	0	2	338	0.00	30.316 
18:35	18.9	18.9	18.9	41	-0.9	0	1	338	0.00	30.320 
18:40	18.6	18.6	18.6	42	-0.6	0	0	---	0.00	30.324 
18:45	18.3	18.3	18.3	42	-0.9	0	1	338	0.00	30.329 
18:50	18.0	18.0	18.0	43	-0.7	0	0	---	0.00	30.329 
18:55	17.8	17.8	17.8	43	-0.9	0	1	338	0.00	30.328 
19:00	17.7	17.7	17.7	43	-1.0	0	1	338	0.00	30.330 
19:05	17.7	17.7	17.7	44	-0.5	0	1	338	0.00	30.330 
19:10	17.3	17.3	17.3	45	-0.4	0	0	---	0.00	30.335 
19:15	17.2	17.2	17.2	45	-0.4	0	0	---	0.00	30.336 
19:20	16.9	16.9	16.9	45	-0.7	0	0	---	0.00	30.337 
19:25	16.5	16.5	16.5	46	-0.6	0	0	---	0.00	30.337 
19:30	16.1	16.1	16.1	47	-0.5	0	0	---	0.00	30.339 
19:35	15.6	15.6	15.6	47	-1.0	0	0	---	0.00	30.341 
19:40	15.4	15.4	15.4	48	-0.7	0	0	---	0.00	30.346 
19:45	15.1	15.1	15.1	50	-0.2	0	0	---	0.00	30.347 
19:50	14.8	14.8	14.8	51	-0.0	0	0	---	0.00	30.347 
19:55	14.3	14.3	14.3	52	-0.1	0	0	---	0.00	30.349 
20:00	14.1	14.1	14.1	54	0.5	0	0	---	0.00	30.355 
20:05	14.0	14.0	14.0	56	1.2	0	0	---	0.00	30.357 
20:10	13.6	13.6	13.6	56	0.9	0	0	---	0.00	30.356 
20:15	13.5	13.5	13.5	57	1.1	0	0	---	0.00	30.356 
20:20	13.1	13.1	13.1	59	1.5	0	0	---	0.00	30.359 
20:25	12.8	12.8	12.8	60	1.6	0	0	---	0.00	30.361 
20:30	12.4	12.4	12.4	61	1.5	0	0	---	0.00	30.363 
20:35	12.3	12.3	12.3	62	1.8	0	0	---	0.00	30.363 
20:40	12.1	12.1	12.1	62	1.6	0	0	---	0.00	30.363 
20:45	11.9	11.9	11.9	63	1.8	0	0	---	0.00	30.364 
20:50	11.7	11.7	11.7	64	1.9	0	0	---	0.00	30.364 
20:55	11.4	11.4	11.4	65	2.0	0	0	---	0.00	30.365 
21:00	11.2	11.2	11.2	65	1.8	0	0	---	0.00	30.370 
21:05	11.2	11.2	11.2	66	2.1	0	0	---	0.00	30.375 
21:10	11.1	11.1	11.1	67	2.3	0	0	---	0.00	30.378 
21:15	10.7	10.7	10.7	67	1.9	0	0	---	0.00	30.381 
21:20	10.5	10.5	10.5	68	2.1	0	0	---	0.00	30.383 
21:25	10.4	10.4	10.4	69	2.3	0	0	---	0.00	30.390 
21:30	10.2	10.2	10.2	69	2.1	0	0	---	0.00	30.391 
21:35	10.0	10.0	10.0	70	2.2	0	0	---	0.00	30.393 
21:40	10.0	10.0	10.0	70	2.2	0	0	---	0.00	30.396 
21:45	10.0	10.0	10.0	71	2.5	0	0	---	0.00	30.397 
21:50	9.9	9.9	9.9	72	2.7	0	0	---	0.00	30.397 
21:55	9.9	9.9	9.9	72	2.7	0	0	---	0.00	30.398 
22:00	9.7	9.7	9.7	72	2.5	0	0	---	0.00	30.401 
22:05	9.7	9.7	9.7	73	2.8	0	0	---	0.00	30.401 
22:10	9.5	9.5	9.5	73	2.6	0	0	---	0.00	30.402 
22:15	9.5	9.5	9.5	73	2.6	0	0	---	0.00	30.401 
22:20	9.3	9.3	9.3	73	2.4	0	0	---	0.00	30.402 
22:25	9.2	9.2	9.2	73	2.3	0	0	---	0.00	30.407 
22:30	9.0	9.0	9.0	73	2.1	0	0	---	0.00	30.409 
22:35	8.8	8.8	8.8	73	1.9	0	0	---	0.00	30.409 
22:40	8.6	8.6	8.6	75	2.3	0	0	---	0.00	30.409 
22:45	8.4	8.4	8.4	75	2.1	0	0	---	0.00	30.411 
22:50	8.6	8.6	8.6	76	2.6	0	0	---	0.00	30.410 
22:55	8.4	8.4	8.4	76	2.4	0	0	---	0.00	30.414 
23:00	8.6	8.6	8.6	76	2.6	0	0	---	0.00	30.414 
23:05	8.4	8.4	8.4	77	2.7	0	0	---	0.00	30.412 
23:10	8.4	8.4	8.4	76	2.4	0	0	---	0.00	30.412 
23:15	8.3	8.3	8.3	76	2.3	0	0	---	0.00	30.412 
23:20	8.1	8.1	8.1	76	2.1	0	0	---	0.00	30.412 
23:25	7.9	7.9	7.9	76	1.9	0	0	---	0.00	30.411 
23:30	7.7	7.7	7.7	76	1.7	0	0	---	0.00	30.412 
23:35	7.6	7.6	7.6	76	1.6	0	0	---	0.00	30.412 
23:40	7.6	7.6	7.6	77	1.9	0	0	---	0.00	30.411 
23:45	7.4	7.4	7.4	77	1.7	0	0	---	0.00	30.413 
23:50	7.2	7.2	7.2	77	1.5	0	0	---	0.00	30.413 
23:55	7.2	7.2	7.2	77	1.5	0	0	---	0.00	30.413 

CoCoRaHS
IN-AL-39
A2 Web Hosting
Creative Commons License
GoDaddy
Look for:

loaded 2017-10-19 12:07:51 • last modified 2010-11-18 10:43:29
Privacy PolicyDisclaimer
• wx.awcolley.com is powered by PmWiki v.2002016 •
• all content (unless otherwise noted) © 2017 A W Colley